Flagstaff Pulliam Airport
KFLG : now visible

Airfield :











YOU CAN JOIN US ON...

 
LOGIN :

Register | Disclaimer

   EN    FR    IT 

 









Legend :    VFR   Marginal VFR   IFR   Intensive IFR   Very Intensive IFR
Visi :
Ceiling :
>= 8 km
>= 3000ft
5 to 8 km
1000 to 3000 ft
1500m to 5 km
500 to 1000 ft
800 to 1500m
200 to 500 ft
< 800m
< 200 ft
Symbols :   Thunderstorms  Fog  Heavy snow  Heavy precipitations  Wind > 20 kt






- Airport Elevation : 7014 ft
- IATA code : FLG


KFLG - Flagstaff Pulliam

CURRENT METAR :
  • 200157Z AUTO 08008KT 10SM CLR 01/M09 A3037 RMK AO2 SLP286 T00061094

EXPIRED METARs :
  • 200057Z 09005KT 10SM CLR 01/M09 A3035 RMK AO2 SLP278 T00111094
  • 192357Z AUTO 09007KT 10SM CLR 04/M08 A3034 RMK AO2 SLP267 T00391083 10056 20028 53000

TAF KFLG
Valid from the 20 at 00:00 until the 21 at 00:00 UTC


192320Z 2000/2024 07011KT P6SM BKN250
TEMPO 2000/2004 07012G18KT
FM201400 VRB06KT P6SM BKN110 OVC140



MET'MAP, your aeronautical weather chart ! - Copyright ORBIFLY December 2007 - Disclaimer

ORBIFLY MET'MAP TEAM :

Programming & Development : Alexandra Zaïnal
Concept & original design : Baudouin d'Aumeries
Assistance for programming : Marc-Olivier Méhu
Technical & hardware support : Manuel Goepfert

Contact : metmap@orbifly.com




SOURCES & CREDITS :

   NOAA       Earth
Advisory